createdAt,value
2018-04-04T00:00:22.959Z,9.37
2018-04-04T00:05:23.959Z,13.43
2018-04-04T00:10:25.699Z,13.33
2018-04-04T00:15:26.695Z,13.90
2018-04-04T00:20:28.444Z,11.80
2018-04-04T00:25:29.448Z,9.83
2018-04-04T00:30:30.445Z,11.07
2018-04-04T00:35:31.429Z,10.50
2018-04-04T00:40:32.412Z,12.17
2018-04-04T00:45:34.136Z,9.93
2018-04-04T00:50:35.118Z,6.47
2018-04-04T00:55:36.102Z,10.90
2018-04-04T01:00:37.098Z,6.90
2018-04-04T01:05:38.085Z,7.83
2018-04-04T01:10:39.064Z,9.33
2018-04-04T01:15:40.801Z,8.27
2018-04-04T01:20:41.791Z,6.97
2018-04-04T01:25:49.063Z,4.90
2018-04-04T01:30:56.865Z,7.93
2018-04-04T01:36:03.971Z,3.90
2018-04-04T01:41:11.903Z,9.27
2018-04-04T01:46:20.711Z,2.67
2018-04-04T01:51:27.943Z,4.93
2018-04-04T01:56:35.868Z,9.60
2018-04-04T02:01:43.052Z,7.97
2018-04-04T02:06:50.203Z,6.33
2018-04-04T02:11:57.374Z,5.00
2018-04-04T02:17:04.486Z,9.47
2018-04-04T02:22:11.596Z,7.10
2018-04-04T02:27:18.852Z,12.50
2018-04-04T02:32:26.801Z,8.07
2018-04-04T02:37:34.704Z,8.43
2018-04-04T02:42:41.898Z,7.97
2018-04-04T02:47:49.059Z,12.23
2018-04-04T02:52:57.023Z,15.87
2018-04-04T02:58:04.227Z,10.07
2018-04-04T03:03:12.491Z,9.23
2018-04-04T03:08:19.591Z,5.47
2018-04-04T03:13:26.820Z,12.50
2018-04-04T03:18:34.060Z,5.87
2018-04-04T03:23:41.287Z,4.20
2018-04-04T03:28:49.304Z,9.50
2018-04-04T03:33:57.243Z,4.43
2018-04-04T03:39:04.324Z,6.43
2018-04-04T03:44:11.508Z,5.13
2018-04-04T03:49:18.775Z,25.27
2018-04-04T03:54:25.843Z,9.67
2018-04-04T03:59:33.100Z,83.30
2018-04-04T04:04:40.345Z,113.33
2018-04-04T04:09:47.626Z,43.00
2018-04-04T04:14:54.780Z,20.87
2018-04-04T04:20:02.037Z,21.77
2018-04-04T04:25:09.235Z,8.00
2018-04-04T04:30:17.272Z,9.33
2018-04-04T04:35:24.500Z,16.90
2018-04-04T04:40:32.495Z,12.03
2018-04-04T04:45:40.519Z,13.80
2018-04-04T04:50:47.643Z,10.87
2018-04-04T04:55:54.803Z,8.90
2018-04-04T05:01:01.977Z,10.03
2018-04-04T05:06:09.155Z,13.90
2018-04-04T05:11:16.383Z,13.13
2018-04-04T05:16:24.259Z,14.37
2018-04-04T05:21:32.172Z,8.20
2018-04-04T05:26:39.312Z,15.17
2018-04-04T05:31:47.287Z,17.80
2018-04-04T05:36:54.431Z,12.07
2018-04-04T05:42:02.329Z,12.30
2018-04-04T05:47:09.511Z,11.53
2018-04-04T05:52:17.427Z,10.20
2018-04-04T05:57:24.523Z,19.60
2018-04-04T06:02:31.695Z,15.43
2018-04-04T06:07:39.672Z,24.73
2018-04-04T06:12:46.951Z,15.50
2018-04-04T06:17:54.875Z,18.13
2018-04-04T06:23:02.083Z,10.07
2018-04-04T06:28:09.336Z,10.97
2018-04-04T06:33:16.548Z,11.73
2018-04-04T06:38:23.735Z,10.70
2018-04-04T06:43:30.884Z,10.60
2018-04-04T06:48:37.982Z,12.83
2018-04-04T06:53:45.076Z,8.97
2018-04-04T06:58:53.016Z,12.30
2018-04-04T07:04:00.843Z,12.60
2018-04-04T07:09:08.511Z,18.40
2018-04-04T07:14:15.831Z,13.53
2018-04-04T07:19:23.003Z,9.33
2018-04-04T07:24:30.247Z,14.63
2018-04-04T07:29:37.332Z,12.83
2018-04-04T07:34:45.163Z,11.47
2018-04-04T07:39:52.291Z,18.60
2018-04-04T07:44:59.389Z,16.40
2018-04-04T07:50:06.567Z,13.03
2018-04-04T07:55:13.708Z,7.07
2018-04-04T08:00:21.615Z,12.90
2018-04-04T08:05:29.515Z,10.47
2018-04-04T08:10:36.620Z,13.00
2018-04-04T08:15:44.585Z,11.63
2018-04-04T08:20:51.843Z,19.00
2018-04-04T08:25:59.037Z,17.40
2018-04-04T08:31:07.283Z,13.00
2018-04-04T08:36:15.290Z,13.70
2018-04-04T08:41:22.323Z,17.53
2018-04-04T08:46:29.419Z,24.73
2018-04-04T08:51:37.315Z,14.47
2018-04-04T08:56:44.363Z,19.00
2018-04-04T09:01:51.460Z,9.97
2018-04-04T09:06:58.599Z,8.63
2018-04-04T09:12:06.527Z,9.77
2018-04-04T09:17:13.622Z,13.50
2018-04-04T09:22:20.767Z,11.40
2018-04-04T09:27:27.975Z,11.23
2018-04-04T09:32:35.047Z,16.10
2018-04-04T09:37:42.217Z,9.00
2018-04-04T09:42:49.351Z,10.77
2018-04-04T09:47:57.280Z,9.27
2018-04-04T09:53:05.163Z,17.07
2018-04-04T09:58:12.383Z,18.30
2018-04-04T10:03:20.298Z,13.77
2018-04-04T10:08:27.487Z,16.40
2018-04-04T10:13:35.423Z,19.60
2018-04-04T10:18:43.239Z,12.73
2018-04-04T10:23:51.155Z,19.70
2018-04-04T10:28:58.347Z,16.57
2018-04-04T10:34:05.550Z,11.87
2018-04-04T10:39:12.719Z,19.10
2018-04-04T10:44:19.821Z,15.73
2018-04-04T10:49:27.791Z,12.37
2018-04-04T10:54:35.703Z,14.03
2018-04-04T10:59:42.907Z,21.10
2018-04-04T11:04:50.735Z,18.50
2018-04-04T11:09:57.911Z,20.00
2018-04-04T11:15:05.219Z,17.17
2018-04-04T11:20:12.371Z,19.57
2018-04-04T11:25:19.628Z,16.33
2018-04-04T11:30:27.593Z,14.70
2018-04-04T11:35:34.784Z,14.20
2018-04-04T11:40:42.699Z,10.53
2018-04-04T11:45:50.624Z,12.63
2018-04-04T11:50:57.807Z,9.47
2018-04-04T11:56:05.743Z,13.30
2018-04-04T12:01:13.735Z,15.53
2018-04-04T12:06:20.939Z,12.93
2018-04-04T12:11:28.810Z,14.87
2018-04-04T12:16:36.114Z,19.80
2018-04-04T12:21:43.422Z,15.63
2018-04-04T12:26:51.302Z,11.60
2018-04-04T12:31:58.344Z,23.60
2018-04-04T12:37:06.327Z,18.87
2018-04-04T12:42:14.232Z,14.63
2018-04-04T12:47:22.159Z,11.00
2018-04-04T12:52:29.360Z,17.33
2018-04-04T12:57:36.460Z,18.47
2018-04-04T13:02:44.399Z,14.83
2018-04-04T13:07:52.299Z,9.57
2018-04-04T13:12:59.499Z,9.00
2018-04-04T13:18:06.693Z,16.23
2018-04-04T13:23:13.979Z,6.13
2018-04-04T13:28:21.880Z,2.90
2018-04-04T13:33:29.014Z,3.03
2018-04-04T13:38:36.276Z,2.30
2018-04-04T13:43:44.176Z,4.63
2018-04-04T13:48:51.359Z,1.90
2018-04-04T13:53:58.515Z,2.87
2018-04-04T13:59:06.477Z,1.10
2018-04-04T14:04:14.405Z,2.80
2018-04-04T14:09:21.628Z,2.63
2018-04-04T14:14:29.520Z,1.00
2018-04-04T14:19:37.544Z,1.73
2018-04-04T14:24:44.744Z,1.17
2018-04-04T14:29:51.848Z,1.13
2018-04-04T14:34:59.035Z,1.27
2018-04-04T14:40:06.143Z,2.30
2018-04-04T14:45:14.087Z,2.30
2018-04-04T14:50:21.170Z,1.57
2018-04-04T14:55:28.372Z,1.17
2018-04-04T15:00:36.331Z,2.33
2018-04-04T15:05:43.408Z,3.40
2018-04-04T15:10:51.307Z,3.53
2018-04-04T15:15:58.532Z,2.10
2018-04-04T15:21:06.432Z,1.73
2018-04-04T15:26:14.245Z,1.50
2018-04-04T15:31:21.407Z,3.43
2018-04-04T15:36:29.271Z,2.87
2018-04-04T15:41:37.083Z,1.77
2018-04-04T15:46:44.279Z,1.50
2018-04-04T15:51:52.227Z,2.63
2018-04-04T15:56:59.335Z,3.40
2018-04-04T16:02:12.735Z,2.23
2018-04-04T16:07:19.924Z,1.70
2018-04-04T16:12:27.067Z,1.30
2018-04-04T16:17:35.013Z,2.20
2018-04-04T16:22:42.228Z,1.97
2018-04-04T16:27:50.151Z,1.53
2018-04-04T16:32:58.074Z,1.23
2018-04-04T16:38:05.355Z,1.93
2018-04-04T16:43:12.461Z,4.00
2018-04-04T16:48:19.775Z,3.03
2018-04-04T16:53:27.092Z,5.70
2018-04-04T16:58:34.980Z,1.40
2018-04-04T17:03:42.091Z,2.70
2018-04-04T17:08:50.056Z,2.40
2018-04-04T17:13:57.336Z,3.17
2018-04-04T17:19:04.594Z,3.97
2018-04-04T17:24:11.880Z,2.70
2018-04-04T17:29:19.113Z,1.80
2018-04-04T17:34:27.183Z,1.50
2018-04-04T17:39:34.439Z,2.23
2018-04-04T17:44:42.285Z,1.60
2018-04-04T17:49:49.463Z,2.10
2018-04-04T17:54:57.393Z,3.50
2018-04-04T18:00:05.301Z,2.70
2018-04-04T18:05:12.496Z,1.37
2018-04-04T18:10:19.869Z,1.67
2018-04-04T18:15:27.823Z,1.37
2018-04-04T18:20:35.090Z,1.27
2018-04-04T18:25:42.253Z,1.53
2018-04-04T18:30:50.302Z,1.93
2018-04-04T18:35:57.648Z,1.43
2018-04-04T18:41:05.488Z,1.53
2018-04-04T18:46:13.550Z,1.77
2018-04-04T18:51:20.729Z,4.40
2018-04-04T18:56:28.803Z,1.50
2018-04-04T19:01:36.135Z,1.80
2018-04-04T19:06:43.532Z,1.73
2018-04-04T19:11:50.584Z,4.03
2018-04-04T19:16:57.851Z,2.60
2018-04-04T19:22:05.782Z,2.20
2018-04-04T19:27:13.704Z,2.67
2018-04-04T19:32:21.626Z,1.93
2018-04-04T19:37:28.726Z,3.20
2018-04-04T19:42:35.903Z,2.27
2018-04-04T19:47:43.127Z,4.20
2018-04-04T19:52:50.303Z,2.00
2018-04-04T19:57:58.246Z,4.13
2018-04-04T20:03:05.491Z,2.10
2018-04-04T20:08:13.349Z,2.50
2018-04-04T20:13:20.500Z,2.87
2018-04-04T20:18:27.629Z,3.60
2018-04-04T20:23:34.859Z,3.10
2018-04-04T20:28:42.023Z,6.33
2018-04-04T20:33:49.151Z,2.10
2018-04-04T20:38:56.995Z,2.80
2018-04-04T20:44:04.291Z,1.90
2018-04-04T20:49:11.299Z,2.53
2018-04-04T20:54:18.491Z,1.93
2018-04-04T20:59:25.571Z,1.97
2018-04-04T21:04:32.711Z,7.73
2018-04-04T21:09:39.887Z,3.00
2018-04-04T21:14:47.046Z,3.63
2018-04-04T21:19:54.327Z,4.43
2018-04-04T21:25:02.220Z,5.27
2018-04-04T21:30:09.379Z,4.20
2018-04-04T21:35:16.542Z,2.83
2018-04-04T21:40:24.535Z,3.50
2018-04-04T21:45:32.447Z,4.77
2018-04-04T21:50:39.708Z,3.60
2018-04-04T21:55:47.601Z,4.53
2018-04-04T22:00:54.771Z,3.37
2018-04-04T22:06:02.808Z,3.03
2018-04-04T22:11:10.023Z,2.63
2018-04-04T22:16:17.244Z,3.53
2018-04-04T22:21:24.386Z,2.10
2018-04-04T22:26:31.455Z,3.73
2018-04-04T22:31:38.639Z,4.20
2018-04-04T22:36:45.831Z,3.37
2018-04-04T22:41:53.019Z,7.80
2018-04-04T22:47:00.207Z,2.83
2018-04-04T22:52:07.440Z,2.73
2018-04-04T22:57:15.372Z,2.00
2018-04-04T23:02:22.602Z,2.97
2018-04-04T23:07:30.583Z,2.73
2018-04-04T23:12:37.827Z,3.43
2018-04-04T23:17:44.999Z,2.73
2018-04-04T23:22:52.931Z,3.10
2018-04-04T23:28:00.727Z,1.90
2018-04-04T23:33:08.740Z,1.47
2018-04-04T23:38:16.695Z,3.17
2018-04-04T23:43:23.978Z,5.60
2018-04-04T23:48:31.276Z,1.60
2018-04-04T23:53:45.425Z,1.43
2018-04-04T23:58:52.503Z,1.77
